Time;durP1;ratioP1;P1;durP2;ratioP2;P2;SDS_P1;SDS_P2;PMS_P1;PMS_P2;Temp;Humidity;BMP_temperature;BMP_pressure;BME280_temperature;BME280_humidity;BME280_pressure;Samples;Min_cycle;Max_cycle;Signal;HPM_P1;HPM_P2
2022/08/24 00:00:08;;;;;;;2.90;2.60;;;;;;;21.54;47.90;100503.31;5070263;28;20482;-81
2022/08/24 00:02:35;;;;;;;7.03;2.80;;;;;;;21.62;47.64;100500.41;5045410;28;20505;-82
2022/08/24 00:05:03;;;;;;;2.90;2.17;;;;;;;21.51;48.64;100504.59;5080037;28;20471;-82
2022/08/24 00:07:30;;;;;;;2.60;2.13;;;;;;;21.53;47.96;100502.50;5073512;28;20815;-82
2022/08/24 00:09:59;;;;;;;4.10;2.60;;;;;;;21.19;48.79;100498.81;5062324;28;20445;-81
2022/08/24 00:12:26;;;;;;;4.30;2.17;;;;;;;21.22;49.40;100498.41;5076237;28;20551;-81
2022/08/24 00:14:53;;;;;;;4.23;2.77;;;;;;;21.29;48.65;100497.59;5070369;28;20437;-81
2022/08/24 00:17:21;;;;;;;2.50;1.80;;;;;;;21.20;49.52;100500.50;5060741;28;20476;-82
2022/08/24 00:19:48;;;;;;;4.70;2.30;;;;;;;21.26;49.07;100493.41;5078751;28;20493;-82
2022/08/24 00:22:15;;;;;;;3.87;2.37;;;;;;;21.16;50.58;100501.97;5056202;28;20469;-82
2022/08/24 00:24:42;;;;;;;3.60;2.40;;;;;;;21.00;50.01;100497.69;5041835;28;20422;-82
2022/08/24 00:27:27;;;;;;;5.13;2.57;;;;;;;21.10;49.65;100499.22;5066873;28;20495;-82
2022/08/24 00:29:54;;;;;;;3.00;2.30;;;;;;;21.01;49.98;100504.81;5068484;28;20555;-82
2022/08/24 00:32:22;;;;;;;4.43;2.50;;;;;;;20.95;50.21;100494.75;5065732;28;21157;-82
2022/08/24 00:34:49;;;;;;;5.63;2.27;;;;;;;21.08;50.25;100493.16;5079128;28;20503;-82
2022/08/24 00:37:15;;;;;;;6.47;2.77;;;;;;;21.04;49.87;100496.28;5079742;28;20542;-82
2022/08/24 00:39:44;;;;;;;5.10;2.77;;;;;;;21.16;49.58;100493.81;5081592;28;20468;-83
2022/08/24 00:42:11;;;;;;;3.00;2.10;;;;;;;21.20;50.31;100505.94;5071459;28;20476;-83
2022/08/24 00:44:37;;;;;;;3.30;2.50;;;;;;;21.10;49.83;100513.63;5061548;28;20570;-83
2022/08/24 00:47:09;;;;;;;3.00;2.30;;;;;;;21.02;50.14;100495.66;5068681;28;20484;-83
2022/08/24 00:49:40;;;;;;;3.17;2.43;;;;;;;20.94;50.33;100501.25;5080201;28;20491;-83
2022/08/24 00:52:13;;;;;;;5.30;2.90;;;;;;;21.00;50.57;100502.31;5061247;28;20476;-83
2022/08/24 00:54:43;;;;;;;2.77;2.07;;;;;;;21.02;50.35;100495.66;5062035;28;20770;-83
2022/08/24 00:57:12;;;;;;;4.27;2.80;;;;;;;20.88;51.28;100507.47;5061104;28;20484;-83
2022/08/24 00:59:47;;;;;;;3.30;2.33;;;;;;;20.65;51.60;100505.91;5074947;28;20519;-82
2022/08/24 01:02:18;;;;;;;4.73;2.80;;;;;;;20.76;51.54;100503.66;5050365;28;20521;-83
2022/08/24 01:04:54;;;;;;;3.30;2.40;;;;;;;20.75;51.16;100508.25;5080699;28;20487;-83
2022/08/24 01:07:22;;;;;;;5.43;2.57;;;;;;;20.73;51.62;100510.34;5067101;28;20480;-83
2022/08/24 01:09:49;;;;;;;5.43;2.63;;;;;;;20.67;51.67;100503.81;5062273;28;20505;-83
2022/08/24 01:12:16;;;;;;;2.80;2.23;;;;;;;20.64;52.97;100501.53;5070189;28;20628;-83
2022/08/24 01:14:45;;;;;;;5.87;3.07;;;;;;;20.55;52.58;100501.84;5079671;28;21001;-83
2022/08/24 01:19:58;;;;;;;4.63;2.70;;;;;;;20.68;52.18;100501.97;5065551;28;20507;-84
2022/08/24 01:22:35;;;;;;;7.20;2.60;;;;;;;20.63;52.40;100504.44;5075908;28;20506;-84
2022/08/24 01:25:04;;;;;;;2.63;2.20;;;;;;;20.66;51.95;100495.91;5067105;28;20474;-83
2022/08/24 01:27:31;;;;;;;3.27;2.20;;;;;;;20.67;52.27;100509.25;5049923;28;20493;-83
2022/08/24 01:29:59;;;;;;;4.30;2.47;;;;;;;20.53;53.27;100504.75;5081717;28;20448;-83
2022/08/24 01:32:27;;;;;;;4.20;2.40;;;;;;;20.41;53.75;100506.34;5083383;28;20522;-85
2022/08/24 01:34:54;;;;;;;3.30;2.30;;;;;;;20.34;53.26;100503.59;5084299;28;20448;-83
2022/08/24 01:37:22;;;;;;;6.07;3.00;;;;;;;20.12;55.02;100508.25;5074700;28;20506;-83
2022/08/24 01:39:49;;;;;;;4.70;2.70;;;;;;;20.19;54.41;100494.72;5079720;28;20471;-83
2022/08/24 01:42:18;;;;;;;4.90;2.50;;;;;;;20.17;54.43;100500.34;5068546;28;20487;-83
2022/08/24 01:44:45;;;;;;;4.40;2.63;;;;;;;20.08;55.05;100502.34;5064913;28;20440;-82
2022/08/24 01:47:14;;;;;;;2.70;2.00;;;;;;;20.11;54.87;100501.97;5067114;28;20507;-83
2022/08/24 01:49:43;;;;;;;4.47;3.03;;;;;;;20.18;54.37;100507.44;5082858;28;20455;-83
2022/08/24 01:52:14;;;;;;;3.70;2.70;;;;;;;20.14;54.61;100500.75;5083700;28;20490;-83
2022/08/24 01:54:40;;;;;;;5.23;3.00;;;;;;;20.15;54.54;100502.41;5067522;28;20556;-81
2022/08/24 01:57:07;;;;;;;3.17;2.77;;;;;;;20.22;54.56;100506.00;5067108;28;20534;-82
2022/08/24 01:59:36;;;;;;;2.93;2.63;;;;;;;20.10;54.88;100502.16;5084131;28;20504;-82
2022/08/24 02:02:05;;;;;;;3.47;2.30;;;;;;;20.21;54.55;100496.22;5082080;28;20503;-82
2022/08/24 02:04:33;;;;;;;3.07;2.70;;;;;;;20.17;54.71;100513.06;5066045;28;20456;-82
2022/08/24 02:07:00;;;;;;;3.40;2.10;;;;;;;20.13;54.60;100509.91;5063930;28;21092;-82
2022/08/24 02:09:27;;;;;;;4.60;2.30;;;;;;;20.17;54.86;100519.34;5064957;28;20809;-82
2022/08/24 02:11:54;;;;;;;3.40;2.50;;;;;;;20.09;55.15;100514.91;5061974;28;20555;-82
2022/08/24 02:14:21;;;;;;;4.40;2.73;;;;;;;20.15;55.10;100521.41;5070561;28;20440;-82
2022/08/24 02:16:50;;;;;;;3.20;2.50;;;;;;;20.18;54.93;100517.47;5082978;28;20476;-82
2022/08/24 02:19:16;;;;;;;3.93;2.50;;;;;;;20.16;54.75;100517.69;5067355;28;20461;-82
2022/08/24 02:21:45;;;;;;;6.30;2.57;;;;;;;19.98;55.45;100514.59;5072826;28;20537;-83
2022/08/24 02:24:11;;;;;;;5.77;2.70;;;;;;;19.88;55.64;100504.09;5075971;28;20457;-82
2022/08/24 02:26:39;;;;;;;8.87;2.80;;;;;;;19.88;55.94;100513.06;5064903;28;20586;-83
2022/08/24 02:29:05;;;;;;;5.73;2.47;;;;;;;19.93;56.39;100520.63;5083787;28;20475;-83
2022/08/24 02:31:32;;;;;;;5.30;2.50;;;;;;;19.69;57.38;100510.97;5064248;28;20560;-83
2022/08/24 02:34:00;;;;;;;4.67;2.70;;;;;;;19.54;58.81;100516.47;5077044;28;20448;-83
2022/08/24 02:36:27;;;;;;;4.50;3.00;;;;;;;19.34;59.13;100518.97;5081356;28;20480;-82
2022/08/24 02:38:54;;;;;;;4.00;2.70;;;;;;;19.26;59.57;100519.91;5081725;28;20433;-83
2022/08/24 02:41:20;;;;;;;3.50;3.20;;;;;;;19.24;59.93;100527.41;5071033;28;20843;-83
2022/08/24 02:43:47;;;;;;;4.90;3.50;;;;;;;19.15;60.32;100518.53;5064294;28;20441;-83
2022/08/24 02:46:18;;;;;;;4.20;2.93;;;;;;;19.12;61.06;100513.50;5063244;28;20496;-83
2022/08/24 02:48:45;;;;;;;4.03;3.13;;;;;;;19.13;60.72;100515.19;5075997;28;20432;-83
2022/08/24 02:51:20;;;;;;;7.13;3.30;;;;;;;19.22;60.03;100518.63;5075743;28;20497;-82
2022/08/24 02:53:47;;;;;;;6.23;3.00;;;;;;;19.23;59.88;100522.16;5064493;28;20440;-82
2022/08/24 02:56:13;;;;;;;7.63;2.90;;;;;;;19.23;60.16;100520.28;5062549;28;20538;-82
2022/08/24 02:58:42;;;;;;;3.53;2.80;;;;;;;19.20;59.91;100517.97;5068034;28;20429;-83
2022/08/24 03:01:09;;;;;;;3.00;2.60;;;;;;;19.14;60.27;100524.97;5076197;28;20492;-82
2022/08/24 03:03:36;;;;;;;3.23;2.93;;;;;;;19.10;60.96;100520.16;5072386;28;20455;-82
2022/08/24 03:06:03;;;;;;;3.03;2.70;;;;;;;19.06;60.92;100526.97;5065991;28;20472;-82
2022/08/24 03:08:31;;;;;;;3.70;3.23;;;;;;;19.06;61.15;100530.53;5049389;28;20444;-83
2022/08/24 03:10:59;;;;;;;5.20;2.90;;;;;;;19.04;61.34;100521.72;5060497;28;20539;-83
2022/08/24 03:13:25;;;;;;;4.53;3.10;;;;;;;19.12;61.00;100523.50;5056855;28;20552;-83
2022/08/24 03:15:52;;;;;;;3.67;2.93;;;;;;;19.15;61.26;100525.84;5059756;28;20688;-84
2022/08/24 03:18:20;;;;;;;3.63;2.60;;;;;;;19.09;61.10;100529.28;5072909;28;20440;-84
2022/08/24 03:20:46;;;;;;;2.77;2.40;;;;;;;19.16;60.21;100541.06;5081340;28;20472;-83
2022/08/24 03:23:14;;;;;;;3.00;2.50;;;;;;;19.18;60.36;100534.44;5067473;28;20681;-83
2022/08/24 03:25:44;;;;;;;3.20;2.90;;;;;;;19.20;59.94;100534.25;5081978;28;20503;-83
2022/08/24 03:28:13;;;;;;;4.73;3.03;;;;;;;19.18;59.79;100530.84;5064305;28;20460;-83
2022/08/24 03:30:39;;;;;;;3.40;2.50;;;;;;;19.25;60.24;100523.66;5047145;28;20965;-83
2022/08/24 03:33:06;;;;;;;3.63;2.70;;;;;;;19.26;59.91;100524.50;5063234;28;20460;-83
2022/08/24 03:35:33;;;;;;;11.63;3.70;;;;;;;19.16;60.37;100519.38;5081427;28;20495;-83
2022/08/24 03:38:03;;;;;;;4.80;2.63;;;;;;;19.19;60.90;100519.84;5066331;28;20449;-83
2022/08/24 03:40:32;;;;;;;3.80;2.90;;;;;;;19.20;60.56;100517.97;5072081;28;20586;-82
2022/08/24 03:43:00;;;;;;;3.23;2.80;;;;;;;19.31;59.69;100516.63;5064604;28;20457;-79
2022/08/24 03:45:27;;;;;;;3.77;2.73;;;;;;;19.24;60.17;100519.28;5074075;28;20639;-79
2022/08/24 03:47:54;;;;;;;3.03;2.07;;;;;;;19.18;59.78;100522.72;5082022;28;20471;-79
2022/08/24 03:50:21;;;;;;;5.63;2.50;;;;;;;19.26;59.50;100519.91;5081442;28;20513;-80
2022/08/24 03:52:48;;;;;;;4.80;2.60;;;;;;;19.32;59.15;100521.88;5080478;28;20448;-79
2022/08/24 03:55:15;;;;;;;6.23;2.90;;;;;;;19.27;59.21;100518.03;5065273;28;20512;-80
2022/08/24 03:57:42;;;;;;;3.43;2.80;;;;;;;19.23;60.29;100530.28;5080722;28;20473;-80
2022/08/24 04:00:13;;;;;;;2.63;2.30;;;;;;;19.12;60.73;100518.91;5079366;28;20542;-79
2022/08/24 04:02:39;;;;;;;3.77;2.93;;;;;;;19.04;61.04;100524.44;5075110;28;20487;-80
2022/08/24 04:05:07;;;;;;;4.13;2.63;;;;;;;18.95;61.56;100526.41;5070006;28;20491;-78
2022/08/24 04:07:34;;;;;;;5.63;3.37;;;;;;;18.84;62.40;100535.03;5067307;28;20468;-79
2022/08/24 04:10:00;;;;;;;3.80;3.40;;;;;;;18.79;62.26;100526.59;5056467;28;20819;-79
2022/08/24 04:12:28;;;;;;;4.03;3.20;;;;;;;18.81;61.85;100527.25;5062087;28;20472;-80
2022/08/24 04:14:54;;;;;;;4.97;3.50;;;;;;;18.89;61.43;100527.19;5068102;28;20860;-80
2022/08/24 04:17:23;;;;;;;5.37;2.90;;;;;;;18.90;60.99;100526.13;5088260;28;20559;-80
2022/08/24 04:19:57;;;;;;;3.73;2.20;;;;;;;18.94;60.52;100524.75;5083932;28;20456;-81
2022/08/24 04:22:24;;;;;;;3.47;2.90;;;;;;;19.06;60.00;100532.38;5056293;28;20559;-80
2022/08/24 04:24:51;;;;;;;4.40;2.50;;;;;;;19.14;59.92;100529.56;5054957;28;20481;-81
2022/08/24 04:27:18;;;;;;;7.40;2.97;;;;;;;19.08;60.45;100533.88;5063967;28;20527;-80
2022/08/24 04:29:45;;;;;;;3.47;3.10;;;;;;;19.00;60.69;100533.97;5072625;28;20844;-79
2022/08/24 04:32:14;;;;;;;5.13;3.10;;;;;;;19.03;60.47;100535.50;5063238;28;20469;-82
2022/08/24 04:34:42;;;;;;;7.10;3.33;;;;;;;19.12;60.16;100539.75;5068634;28;20457;-82
2022/08/24 04:37:08;;;;;;;3.60;2.20;;;;;;;19.26;59.49;100536.19;5056117;28;20484;-83
2022/08/24 04:39:35;;;;;;;3.90;2.60;;;;;;;19.29;59.56;100545.81;5068603;28;20544;-82
2022/08/24 04:42:02;;;;;;;5.03;2.40;;;;;;;19.31;59.72;100538.31;5073400;28;20893;-82
2022/08/24 04:44:28;;;;;;;2.83;2.53;;;;;;;19.38;58.93;100539.25;5066022;28;20506;-82
2022/08/24 04:46:55;;;;;;;3.90;2.90;;;;;;;19.41;59.44;100540.72;5071400;28;20557;-81
2022/08/24 04:49:22;;;;;;;2.63;2.37;;;;;;;19.40;59.03;100544.47;5081304;28;20462;-82
2022/08/24 04:51:50;;;;;;;4.13;2.40;;;;;;;19.56;58.85;100546.94;5080282;28;20499;-81
2022/08/24 04:54:17;;;;;;;9.90;3.37;;;;;;;19.57;58.37;100549.44;5043747;28;20484;-81
2022/08/24 04:56:44;;;;;;;3.03;2.60;;;;;;;19.77;58.76;100543.41;5069101;28;20507;-83
2022/08/24 04:59:10;;;;;;;3.10;2.67;;;;;;;19.92;57.95;100551.50;5062796;28;20471;-83
2022/08/24 05:01:37;;;;;;;4.43;2.77;;;;;;;20.27;56.54;100549.69;5058975;28;20539;-81
2022/08/24 05:04:04;;;;;;;7.53;2.60;;;;;;;20.96;54.59;100547.25;5057000;28;20476;-81
2022/08/24 05:06:32;;;;;;;3.27;2.30;;;;;;;22.14;51.74;100550.50;5079113;28;20476;-82
2022/08/24 05:09:01;;;;;;;4.83;2.50;;;;;;;22.81;48.96;100550.44;5081434;28;20437;-82
2022/08/24 05:11:28;;;;;;;4.77;2.70;;;;;;;23.01;47.94;100549.53;5064710;28;20477;-81
2022/08/24 05:13:56;;;;;;;5.10;2.50;;;;;;;23.38;46.80;100563.47;5082364;28;20994;-82
2022/08/24 05:16:23;;;;;;;2.73;2.53;;;;;;;24.13;45.37;100560.91;5080932;28;20480;-82
2022/08/24 05:18:50;;;;;;;3.60;2.60;;;;;;;24.37;44.51;100558.38;5079931;28;20440;-81
2022/08/24 05:21:19;;;;;;;5.90;2.67;;;;;;;25.53;42.44;100556.66;5082881;28;20507;-81
2022/08/24 05:23:46;;;;;;;3.30;2.40;;;;;;;25.98;40.99;100557.31;5084059;28;20455;-82
2022/08/24 05:26:16;;;;;;;4.00;2.77;;;;;;;26.44;40.28;100555.69;5065319;28;20483;-79
2022/08/24 05:28:43;;;;;;;5.93;3.00;;;;;;;26.44;39.97;100566.66;5066337;28;20481;-79
2022/08/24 05:31:12;;;;;;;3.60;2.50;;;;;;;25.34;41.75;100563.25;5084316;28;21018;-80
2022/08/24 05:33:39;;;;;;;4.10;2.40;;;;;;;25.66;41.82;100572.09;5045988;28;20466;-80
2022/08/24 05:36:07;;;;;;;3.20;2.67;;;;;;;25.98;40.68;100574.59;5043723;28;20541;-80
2022/08/24 05:38:33;;;;;;;3.97;2.40;;;;;;;26.90;38.39;100575.97;5045937;28;20477;-80
2022/08/24 05:41:04;;;;;;;2.77;2.30;;;;;;;27.29;37.50;100573.53;5044356;28;20508;-79
2022/08/24 05:43:32;;;;;;;6.20;2.50;;;;;;;27.64;37.62;100579.94;5045234;28;20448;-80
2022/08/24 05:45:59;;;;;;;4.10;2.60;;;;;;;27.32;37.80;100577.69;5044193;28;20566;-80
2022/08/24 05:48:26;;;;;;;3.50;2.37;;;;;;;27.28;38.69;100580.09;5055515;28;20479;-81
2022/08/24 05:50:54;;;;;;;7.53;2.60;;;;;;;27.56;38.07;100572.94;5063604;28;20493;-80
2022/08/24 05:53:21;;;;;;;4.60;2.80;;;;;;;27.21;38.43;100576.63;5064558;28;20484;-80
2022/08/24 05:55:47;;;;;;;4.60;2.67;;;;;;;27.40;38.40;100582.78;5063600;28;20469;-80
2022/08/24 05:58:14;;;;;;;4.40;2.50;;;;;;;27.50;37.74;100580.25;5065008;28;20459;-80
2022/08/24 06:00:44;;;;;;;6.83;2.33;;;;;;;27.39;38.06;100586.59;5064138;28;20562;-80
2022/08/24 06:03:12;;;;;;;6.30;2.50;;;;;;;28.06;37.09;100583.22;5064549;28;20456;-80
2022/08/24 06:05:40;;;;;;;8.53;2.43;;;;;;;27.65;38.19;100589.84;5063565;28;20465;-80
2022/08/24 06:08:06;;;;;;;3.67;2.40;;;;;;;26.17;40.68;100590.97;5062644;28;21024;-80
2022/08/24 06:10:39;;;;;;;9.30;2.70;;;;;;;25.54;42.25;100590.38;5062986;28;20468;-81
2022/08/24 06:13:09;;;;;;;6.00;2.87;;;;;;;25.35;42.52;100592.31;5064012;28;20469;-81
2022/08/24 06:15:37;;;;;;;6.47;2.70;;;;;;;26.52;40.54;100593.72;5063111;28;20465;-80
2022/08/24 06:18:06;;;;;;;5.00;2.40;;;;;;;27.81;37.57;100597.28;5063761;28;20448;-81
2022/08/24 06:20:37;;;;;;;4.33;2.60;;;;;;;28.60;36.22;100592.91;5063378;28;20483;-80
2022/08/24 06:23:04;;;;;;;5.23;2.43;;;;;;;28.26;36.76;100596.47;5064106;28;20445;-80
2022/08/24 06:28:15;;;;;;;4.70;2.30;;;;;;;29.37;34.93;100597.50;5064324;28;20417;-81
2022/08/24 06:30:42;;;;;;;6.83;2.50;;;;;;;28.98;35.78;100599.50;5063419;28;20465;-81
2022/08/24 06:33:10;;;;;;;3.70;2.50;;;;;;;29.54;34.52;100591.09;5063440;28;20665;-80
2022/08/24 06:35:37;;;;;;;4.30;2.50;;;;;;;29.85;33.96;100592.28;5062683;28;20493;-80
2022/08/24 06:38:04;;;;;;;3.70;2.60;;;;;;;29.22;35.02;100600.09;5064187;28;20431;-80
2022/08/24 06:40:31;;;;;;;3.73;2.53;;;;;;;30.32;33.47;100601.78;5046817;28;20497;-80
2022/08/24 06:43:02;;;;;;;5.23;2.73;;;;;;;30.29;33.02;100600.38;5043290;28;20497;-79
2022/08/24 06:45:29;;;;;;;4.73;2.90;;;;;;;30.32;32.81;100596.28;5043237;28;20505;-80
2022/08/24 06:47:58;;;;;;;8.17;2.90;;;;;;;30.49;32.49;100609.97;5052521;28;20451;-79
2022/08/24 06:50:27;;;;;;;8.13;2.60;;;;;;;30.34;33.23;100608.69;5062844;28;20530;-80
2022/08/24 06:52:53;;;;;;;3.67;2.47;;;;;;;30.71;32.81;100610.66;5063388;28;20864;-82
2022/08/24 06:55:20;;;;;;;3.90;2.20;;;;;;;31.45;31.68;100613.53;5062174;28;20481;-81
2022/08/24 06:57:47;;;;;;;3.57;2.37;;;;;;;32.32;30.07;100613.69;5062741;28;20465;-81
2022/08/24 07:00:16;;;;;;;3.47;2.60;;;;;;;31.60;30.90;100618.31;5063282;28;20453;-82
2022/08/24 07:02:42;;;;;;;4.03;2.47;;;;;;;32.97;28.94;100616.66;5062410;28;20580;-81
2022/08/24 07:05:09;;;;;;;3.93;2.40;;;;;;;32.68;30.08;100615.66;5056523;28;20840;-81
2022/08/24 07:07:37;;;;;;;4.90;2.03;;;;;;;32.43;29.70;100614.53;5062709;28;20882;-81
2022/08/24 07:10:07;;;;;;;2.33;2.13;;;;;;;32.53;29.55;100622.81;5063246;28;20453;-81
2022/08/24 07:12:34;;;;;;;5.47;1.83;;;;;;;31.60;30.81;100623.84;5082398;28;20471;-83
2022/08/24 07:15:01;;;;;;;4.93;2.30;;;;;;;32.91;29.56;100626.09;5083509;28;20434;-81
2022/08/24 07:17:27;;;;;;;2.20;2.00;;;;;;;33.17;28.19;100634.34;5062886;28;20474;-80
2022/08/24 07:19:55;;;;;;;7.77;2.47;;;;;;;32.32;29.84;100635.84;5062480;28;20458;-81
2022/08/24 07:22:22;;;;;;;4.93;2.37;;;;;;;33.12;28.58;100631.56;5062085;28;20921;-82
2022/08/24 07:24:50;;;;;;;4.70;2.57;;;;;;;32.45;29.39;100637.22;5062883;28;20429;-81
2022/08/24 07:27:16;;;;;;;3.37;2.10;;;;;;;34.04;28.35;100628.34;5062001;28;20483;-81
2022/08/24 07:29:43;;;;;;;4.93;3.60;;;;;;;33.53;28.11;100634.22;5062924;28;20444;-82
2022/08/24 07:32:10;;;;;;;5.03;2.53;;;;;;;33.53;28.04;100637.81;5058799;28;20514;-82
2022/08/24 07:34:37;;;;;;;7.93;2.73;;;;;;;33.31;28.87;100632.63;5057565;28;20498;-82
2022/08/24 07:37:04;;;;;;;5.30;2.40;;;;;;;33.46;29.25;100639.25;5059661;28;20484;-81
2022/08/24 07:39:31;;;;;;;4.03;2.67;;;;;;;33.91;27.66;100640.94;5060585;28;20525;-81
2022/08/24 07:41:59;;;;;;;3.17;2.20;;;;;;;33.29;28.88;100639.59;5058848;28;20606;-82
2022/08/24 07:44:26;;;;;;;4.60;2.37;;;;;;;34.98;26.39;100641.16;5060666;28;20525;-81
2022/08/24 07:46:53;;;;;;;3.10;2.70;;;;;;;34.19;26.93;100644.09;5059571;28;20490;-81
2022/08/24 07:49:20;;;;;;;5.10;2.53;;;;;;;33.80;27.77;100647.69;5047372;28;20463;-81
2022/08/24 07:51:47;;;;;;;5.50;2.20;;;;;;;35.16;25.70;100642.34;5052746;28;20478;-80
2022/08/24 07:54:14;;;;;;;3.00;2.03;;;;;;;34.73;26.04;100639.47;5058647;28;20474;-79
2022/08/24 07:56:41;;;;;;;5.63;2.50;;;;;;;34.42;26.59;100641.69;5061712;28;20482;-82
2022/08/24 07:59:09;;;;;;;2.50;2.00;;;;;;;34.55;26.50;100643.78;5062509;28;20434;-81
2022/08/24 08:01:36;;;;;;;2.87;2.13;;;;;;;34.56;25.50;100651.00;5061076;28;20589;-81
2022/08/24 08:04:03;;;;;;;2.70;1.80;;;;;;;33.90;27.04;100649.53;5062021;28;20446;-81
2022/08/24 08:06:31;;;;;;;5.40;2.53;;;;;;;35.73;24.70;100652.75;5060875;28;20480;-81
2022/08/24 08:08:58;;;;;;;2.50;1.87;;;;;;;36.23;23.50;100652.31;5062570;28;20443;-81
2022/08/24 08:11:25;;;;;;;4.33;2.00;;;;;;;35.83;23.66;100663.75;5061262;28;20473;-81
2022/08/24 08:13:53;;;;;;;2.70;1.90;;;;;;;34.05;27.15;100665.28;5062451;28;20437;-81
2022/08/24 08:16:21;;;;;;;2.93;2.00;;;;;;;35.83;25.11;100663.75;5061808;28;20516;-82
2022/08/24 08:18:48;;;;;;;2.77;2.10;;;;;;;35.66;24.23;100655.06;5060649;28;20451;-80
2022/08/24 08:26:39;;;;;;;1.70;1.50;;;;;;;35.32;23.68;100651.34;5061124;28;20501;-81
2022/08/24 08:29:06;;;;;;;4.13;1.97;;;;;;;36.23;23.17;100650.34;5061999;28;20435;-80
2022/08/24 08:31:34;;;;;;;2.83;2.13;;;;;;;37.59;21.38;100645.59;5060854;28;20844;-82
2022/08/24 08:34:02;;;;;;;3.27;2.50;;;;;;;36.70;22.29;100648.47;5061505;28;20485;-84
2022/08/24 08:36:29;;;;;;;2.47;2.00;;;;;;;37.35;21.64;100648.63;5061031;28;20522;-81
2022/08/24 08:38:56;;;;;;;3.13;1.83;;;;;;;36.83;22.20;100646.81;5061576;28;20816;-79
2022/08/24 08:41:52;;;;;;;4.17;2.53;;;;;;;35.33;23.83;100650.22;5060954;28;20900;-82
2022/08/24 08:44:24;;;;;;;5.13;2.47;;;;;;;34.73;25.02;100649.75;5062090;28;20499;-81
2022/08/24 08:47:03;;;;;;;3.90;2.17;;;;;;;35.88;24.52;100646.97;5060706;28;20488;-82
2022/08/24 08:49:55;;;;;;;4.53;2.30;;;;;;;38.21;20.91;100654.22;5061274;28;20466;-83
2022/08/24 08:52:47;;;;;;;2.83;2.07;;;;;;;37.71;21.30;100659.84;5060824;28;20486;-81
2022/08/24 08:55:22;;;;;;;3.17;1.93;;;;;;;37.77;21.95;100655.78;5060843;28;20490;-81
2022/08/24 08:57:59;;;;;;;3.10;2.33;;;;;;;36.41;22.79;100653.44;5061529;28;20903;-81
2022/08/24 09:00:32;;;;;;;4.50;1.90;;;;;;;36.75;22.43;100647.53;5060895;28;20518;-83
2022/08/24 09:03:37;;;;;;;2.43;2.23;;;;;;;37.91;20.91;100652.94;5061107;28;20498;-82
2022/08/24 09:06:32;;;;;;;3.10;2.00;;;;;;;38.96;19.53;100657.28;5055328;28;20473;-82
2022/08/24 09:09:17;;;;;;;3.33;1.67;;;;;;;37.22;22.08;100651.13;5061614;28;20453;-82
2022/08/24 09:11:51;;;;;;;3.43;2.10;;;;;;;38.54;20.51;100651.16;5060863;28;20477;-83
2022/08/24 09:14:57;;;;;;;2.23;1.80;;;;;;;37.32;21.87;100652.84;5062152;28;20448;-83
2022/08/24 09:17:33;;;;;;;5.47;2.67;;;;;;;35.85;22.62;100653.16;5058911;28;20480;-82
2022/08/24 09:20:13;;;;;;;2.90;2.20;;;;;;;38.09;20.31;100650.31;5060782;28;20466;-82
2022/08/24 09:22:44;;;;;;;5.57;2.47;;;;;;;37.19;21.08;100651.72;5060683;28;20524;-81
2022/08/24 09:25:25;;;;;;;3.07;1.90;;;;;;;37.16;21.62;100649.53;5060677;28;20436;-81
2022/08/24 09:28:13;;;;;;;2.43;2.17;;;;;;;36.49;23.28;100649.94;5061107;28;20447;-82
2022/08/24 09:30:57;;;;;;;4.20;1.93;;;;;;;37.13;21.73;100650.97;5060847;28;20953;-82
2022/08/24 09:33:31;;;;;;;2.40;1.83;;;;;;;36.85;22.33;100636.19;5061239;28;20492;-83
2022/08/24 09:36:08;;;;;;;3.43;2.27;;;;;;;37.57;21.37;100645.91;5060195;28;20551;-82
2022/08/24 09:38:59;;;;;;;2.97;1.70;;;;;;;38.04;21.15;100643.72;5061458;28;20488;-81
2022/08/24 09:42:01;;;;;;;4.17;2.20;;;;;;;38.80;19.67;100645.72;5060658;28;20481;-83
2022/08/24 09:45:04;;;;;;;5.10;2.43;;;;;;;37.61;21.33;100638.53;5057761;28;20462;-82
2022/08/24 09:47:48;;;;;;;4.07;2.23;;;;;;;37.82;20.68;100647.28;5028229;28;20537;-82
2022/08/24 09:50:40;;;;;;;3.10;2.17;;;;;;;37.58;21.09;100643.94;5064932;28;20462;-82
2022/08/24 09:53:30;;;;;;;4.33;2.57;;;;;;;38.68;20.01;100641.88;5057671;28;20937;-82
2022/08/24 09:56:05;;;;;;;16.87;3.00;;;;;;;36.33;22.41;100643.81;5063750;28;20479;-82
2022/08/24 09:58:43;;;;;;;5.40;2.40;;;;;;;36.57;23.23;100644.47;5064007;28;20459;-82
2022/08/24 10:01:15;;;;;;;4.07;2.40;;;;;;;36.55;21.88;100635.59;5063248;28;20474;-81
2022/08/24 10:03:54;;;;;;;4.80;2.37;;;;;;;36.52;21.85;100636.22;5058634;28;20502;-82
2022/08/24 10:06:31;;;;;;;3.37;2.23;;;;;;;36.64;22.19;100632.13;5053536;28;20486;-82
2022/08/24 10:09:27;;;;;;;3.67;2.30;;;;;;;37.09;21.40;100626.81;5063860;28;20473;-82
2022/08/24 10:12:04;;;;;;;3.10;2.10;;;;;;;36.95;21.36;100626.81;5063234;28;20475;-83
2022/08/24 10:14:43;;;;;;;2.50;2.30;;;;;;;37.06;21.55;100621.84;5063743;28;21089;-82
2022/08/24 10:17:16;;;;;;;3.30;2.47;;;;;;;35.73;22.49;100624.94;5056562;28;20496;-82
2022/08/24 10:19:53;;;;;;;2.47;2.00;;;;;;;35.34;23.64;100621.28;5043837;28;20452;-82
2022/08/24 10:22:31;;;;;;;2.63;2.10;;;;;;;35.38;23.03;100615.94;5049727;28;20507;-83
2022/08/24 10:25:07;;;;;;;3.50;2.47;;;;;;;34.65;24.28;100618.72;5063987;28;20894;-82
2022/08/24 10:27:43;;;;;;;6.03;3.07;;;;;;;35.75;22.89;100620.75;5064043;28;20448;-82
2022/08/24 10:30:39;;;;;;;5.10;2.47;;;;;;;35.00;24.13;100607.50;5061337;28;20462;-83
2022/08/24 10:33:13;;;;;;;3.00;2.30;;;;;;;34.44;24.88;100612.50;5103046;28;20508;-81
2022/08/24 10:35:52;;;;;;;4.67;2.93;;;;;;;34.77;23.74;100612.75;5083454;28;20504;-82
2022/08/24 10:42:00;;;;;;;3.70;2.50;;;;;;;33.91;26.40;100601.28;5054483;28;20478;-83
2022/08/24 10:44:48;;;;;;;3.70;3.00;;;;;;;34.76;23.74;100608.34;4970274;28;20557;-82
2022/08/24 10:47:25;;;;;;;4.47;2.63;;;;;;;35.47;23.13;100614.19;4981649;28;20556;-81
2022/08/24 10:50:21;;;;;;;3.10;2.50;;;;;;;36.37;23.11;100606.69;4981941;28;20458;-81
2022/08/24 10:53:08;;;;;;;5.43;2.43;;;;;;;36.15;22.25;100612.06;5001483;28;20465;-82
2022/08/24 10:55:35;;;;;;;3.87;2.60;;;;;;;37.07;21.65;100604.81;4998576;28;20482;-81
2022/08/24 10:58:43;;;;;;;4.13;2.50;;;;;;;36.65;21.88;100611.47;5001464;28;20461;-80
2022/08/24 11:01:21;;;;;;;5.17;2.30;;;;;;;38.36;20.42;100608.31;4978794;28;21030;-83
2022/08/24 11:03:55;;;;;;;4.23;2.50;;;;;;;38.57;19.49;100607.75;5001427;28;20514;-83
2022/08/24 11:06:23;;;;;;;4.37;2.70;;;;;;;37.05;21.85;100607.09;5000268;28;20472;-82
2022/08/24 11:08:55;;;;;;;3.63;2.90;;;;;;;36.34;22.39;100606.47;5002118;28;20524;-82
2022/08/24 11:11:26;;;;;;;4.23;2.27;;;;;;;37.48;21.49;100603.97;5000752;28;20601;-82
2022/08/24 11:13:57;;;;;;;4.80;2.37;;;;;;;37.30;20.31;100599.34;5001007;28;20466;-81
2022/08/24 11:16:29;;;;;;;4.50;2.57;;;;;;;38.03;19.92;100607.72;5057094;28;20488;-82
2022/08/24 11:18:58;;;;;;;3.50;2.50;;;;;;;38.82;19.78;100597.88;5063041;28;20484;-81
2022/08/24 11:21:47;;;;;;;5.17;2.40;;;;;;;38.99;19.46;100603.53;5062465;28;20488;-82
2022/08/24 11:24:26;;;;;;;3.30;2.87;;;;;;;37.12;21.30;100598.31;5051981;28;20501;-82
2022/08/24 11:26:56;;;;;;;3.33;2.30;;;;;;;36.62;21.70;100595.41;5063120;28;20485;-81
2022/08/24 11:29:30;;;;;;;3.30;2.43;;;;;;;37.56;20.12;100598.78;5062934;28;20497;-81
2022/08/24 11:31:59;;;;;;;2.50;2.20;;;;;;;38.05;20.08;100599.84;5051504;28;20480;-82
2022/08/24 11:34:35;;;;;;;4.60;2.40;;;;;;;37.85;20.30;100595.63;5062843;28;20429;-82
2022/08/24 11:37:02;;;;;;;3.67;2.20;;;;;;;36.48;20.96;100589.81;5062538;28;20487;-83
2022/08/24 11:39:33;;;;;;;5.43;2.70;;;;;;;35.71;22.78;100596.56;5062715;28;20440;-82
2022/08/24 11:42:08;;;;;;;4.60;2.97;;;;;;;36.50;21.95;100593.91;5062492;28;20519;-82
2022/08/24 11:44:45;;;;;;;4.10;2.70;;;;;;;36.69;21.01;100598.63;5063539;28;20438;-82
2022/08/24 11:47:46;;;;;;;4.70;2.60;;;;;;;37.07;20.78;100590.88;5061729;28;20525;-83
2022/08/24 11:50:24;;;;;;;3.40;2.00;;;;;;;36.75;20.53;100589.88;5019729;28;20490;-83
2022/08/24 11:52:58;;;;;;;3.43;2.40;;;;;;;36.75;20.83;100586.22;5063888;28;20447;-81
2022/08/24 11:55:31;;;;;;;4.70;2.23;;;;;;;37.42;20.23;100582.91;5061683;28;20977;-82